Terminal Aerodrome Forecast
Issued by NWS

Home | Current Version | Previous Version | Text Only | Print | Product List | Glossary On
Versions: 1 2 3 4 5 6 7 8 9 10 11 12
059
FTUS45 KABQ 201133
TAFLVS
TAF
KLVS 201133Z 2012/2112 21009KT P6SM FEW250
     FM201800 24012KT P6SM SCT200
     FM202100 22021G30KT P6SM BKN070
     FM210900 24019G26KT P6SM OVC030=

USA.gov is the U.S. government's official web portal to all federal, state and local government web resources and services.